Time;durP1;ratioP1;P1;durP2;ratioP2;P2;SDS_P1;SDS_P2;PMS_P1;PMS_P2;Temp;Humidity;BMP_temperature;BMP_pressure;BME280_temperature;BME280_humidity;BME280_pressure;Samples;Min_cycle;Max_cycle;Signal;HPM_P1;HPM_P2
2021/01/19 00:00:36;;;;;;;12.52;3.33;;;10.90;66.80;;;;;;2097808;28;20041;-85
2021/01/19 00:01:38;;;;;;;18.13;3.67;;;11.00;66.10;;;;;;2098829;28;20515;-78
2021/01/19 00:02:40;;;;;;;19.08;4.50;;;11.20;65.60;;;;;;2098938;28;20045;-77
2021/01/19 00:03:41;;;;;;;15.98;3.17;;;11.00;66.10;;;;;;2098972;28;20511;-79
2021/01/19 00:04:43;;;;;;;20.40;5.07;;;11.60;65.90;;;;;;2099182;28;20065;-78
2021/01/19 00:05:44;;;;;;;14.55;3.45;;;11.30;64.70;;;;;;2099086;28;20044;-82
2021/01/19 00:06:46;;;;;;;11.48;3.45;;;11.10;64.50;;;;;;2100211;28;20052;-85
2021/01/19 00:07:48;;;;;;;17.75;4.30;;;11.30;65.20;;;;;;2099852;28;20044;-80
2021/01/19 00:08:49;;;;;;;28.63;4.78;;;11.30;64.90;;;;;;2102008;28;20519;-79
2021/01/19 00:09:51;;;;;;;16.67;4.22;;;10.90;65.70;;;;;;2102616;28;20079;-80
2021/01/19 00:10:53;;;;;;;11.77;3.00;;;10.60;66.50;;;;;;2094011;28;20095;-82
2021/01/19 00:11:54;;;;;;;17.70;4.88;;;11.00;69.00;;;;;;2100127;28;20044;-80
2021/01/19 00:12:57;;;;;;;16.95;4.65;;;11.00;65.50;;;;;;2100845;28;20059;-79
2021/01/19 00:13:58;;;;;;;15.95;4.10;;;10.50;66.60;;;;;;2100203;28;20040;-76
2021/01/19 00:15:00;;;;;;;14.18;3.75;;;10.50;68.00;;;;;;2099805;28;20080;-79
2021/01/19 00:16:02;;;;;;;16.10;3.80;;;10.80;67.30;;;;;;2100197;28;20049;-82
2021/01/19 00:17:04;;;;;;;13.43;3.80;;;10.80;67.70;;;;;;2100537;28;20056;-73
2021/01/19 00:18:05;;;;;;;19.02;3.97;;;11.00;67.00;;;;;;2100235;28;20040;-85
2021/01/19 00:19:07;;;;;;;18.35;4.38;;;11.10;66.30;;;;;;2100588;28;20044;-84
2021/01/19 00:20:09;;;;;;;16.52;4.03;;;11.00;65.80;;;;;;2100540;28;20052;-75
2021/01/19 00:21:11;;;;;;;25.52;5.22;;;10.60;68.20;;;;;;2100507;28;20048;-86
2021/01/19 00:22:13;;;;;;;15.77;3.30;;;10.90;66.10;;;;;;2100221;28;20080;-77
2021/01/19 00:23:14;;;;;;;20.23;4.68;;;10.80;66.80;;;;;;2100449;28;20063;-80
2021/01/19 00:24:16;;;;;;;17.67;4.22;;;10.60;66.40;;;;;;2100058;28;20052;-83
2021/01/19 00:25:18;;;;;;;19.35;4.03;;;10.80;68.80;;;;;;2100835;28;20091;-83
2021/01/19 00:26:19;;;;;;;17.92;3.50;;;10.80;68.30;;;;;;2100401;28;20055;-83
2021/01/19 00:27:21;;;;;;;9.57;2.83;;;11.00;67.70;;;;;;2100328;28;20512;-76
2021/01/19 00:28:23;;;;;;;12.20;3.17;;;11.00;67.30;;;;;;2100341;28;20056;-79
2021/01/19 00:29:25;;;;;;;14.73;3.47;;;11.70;65.60;;;;;;2099352;28;20045;-84
2021/01/19 00:30:27;;;;;;;20.75;4.32;;;11.70;63.90;;;;;;2098727;28;20051;-86
2021/01/19 00:31:28;;;;;;;10.45;3.35;;;11.20;63.70;;;;;;2098785;28;20509;-79
2021/01/19 00:32:30;;;;;;;12.30;3.40;;;11.60;65.40;;;;;;2098938;28;20055;-80
2021/01/19 00:33:31;;;;;;;12.63;3.40;;;11.80;62.50;;;;;;2098793;28;20049;-83
2021/01/19 00:34:33;;;;;;;21.17;4.25;;;12.00;63.70;;;;;;2098923;28;20052;-80
2021/01/19 00:35:36;;;;;;;15.60;3.65;;;11.80;61.70;;;;;;2098960;28;20048;-79
2021/01/19 00:36:38;;;;;;;20.33;4.18;;;11.90;62.60;;;;;;2098977;28;20075;-85
2021/01/19 00:37:39;;;;;;;20.05;4.43;;;11.70;61.70;;;;;;2098920;28;20283;-84
2021/01/19 00:38:41;;;;;;;15.00;4.18;;;11.30;62.40;;;;;;2098920;28;20055;-84
2021/01/19 00:39:43;;;;;;;18.52;3.70;;;10.90;63.40;;;;;;2099058;28;20432;-78
2021/01/19 00:40:44;;;;;;;9.23;3.15;;;11.30;64.80;;;;;;2098922;28;20608;-77
2021/01/19 00:41:46;;;;;;;22.27;4.03;;;11.50;65.50;;;;;;2099594;28;20044;-79
2021/01/19 00:42:48;;;;;;;8.82;3.05;;;10.80;63.80;;;;;;2098966;28;20052;-78
2021/01/19 00:43:50;;;;;;;12.93;3.67;;;11.00;68.40;;;;;;2098924;28;20088;-86
2021/01/19 00:44:52;;;;;;;20.83;4.00;;;10.60;66.30;;;;;;2099153;28;20048;-82
2021/01/19 00:45:53;;;;;;;17.70;4.30;;;10.60;67.00;;;;;;2099224;28;20055;-85
2021/01/19 00:46:55;;;;;;;17.80;4.47;;;10.20;68.00;;;;;;2099300;28;20049;-83
2021/01/19 00:47:57;;;;;;;13.48;3.92;;;10.30;67.90;;;;;;2098874;28;20040;-79
2021/01/19 00:48:59;;;;;;;14.52;3.65;;;10.20;68.10;;;;;;2099284;28;20086;-86
2021/01/19 00:50:01;;;;;;;10.52;3.00;;;10.40;69.30;;;;;;2099168;28;20120;-77
2021/01/19 00:51:03;;;;;;;13.95;3.28;;;11.20;67.30;;;;;;2098978;28;20052;-78
2021/01/19 00:52:05;;;;;;;10.52;3.25;;;10.60;66.80;;;;;;2098770;28;20055;-79
2021/01/19 00:53:07;;;;;;;16.55;3.67;;;10.70;67.70;;;;;;2098815;28;20481;-83
2021/01/19 00:54:09;;;;;;;16.25;3.70;;;10.60;67.90;;;;;;2098875;28;20524;-76
2021/01/19 00:55:13;;;;;;;29.25;4.40;;;10.60;67.90;;;;;;2098733;28;20421;-83
2021/01/19 00:56:14;;;;;;;12.55;3.30;;;10.30;69.90;;;;;;2098335;28;20425;-83
2021/01/19 00:57:17;;;;;;;17.83;2.95;;;10.80;67.20;;;;;;2098351;28;20051;-81
2021/01/19 00:58:18;;;;;;;18.70;3.75;;;10.70;65.70;;;;;;2099170;28;20481;-84
2021/01/19 00:59:21;;;;;;;11.30;3.45;;;10.60;67.70;;;;;;2099081;28;20056;-77
2021/01/19 01:00:23;;;;;;;14.75;3.20;;;10.80;66.90;;;;;;2099390;28;20049;-79
2021/01/19 01:01:28;;;;;;;10.23;3.17;;;10.90;67.40;;;;;;2099296;28;20053;-82
2021/01/19 01:02:29;;;;;;;15.23;3.13;;;11.50;65.40;;;;;;2098932;28;20040;-79
2021/01/19 01:03:33;;;;;;;16.60;3.55;;;11.50;63.30;;;;;;2098680;28;20044;-84
2021/01/19 01:04:35;;;;;;;12.50;3.08;;;11.50;63.60;;;;;;2098525;28;20052;-81
2021/01/19 01:05:36;;;;;;;9.07;2.70;;;11.40;63.50;;;;;;2098242;28;20063;-77
2021/01/19 01:06:38;;;;;;;9.30;2.92;;;11.50;63.30;;;;;;2098970;28;20044;-79
2021/01/19 01:07:41;;;;;;;9.65;2.92;;;11.70;65.10;;;;;;2098838;28;20045;-78
2021/01/19 01:08:43;;;;;;;9.63;2.80;;;12.30;64.40;;;;;;2098533;28;20071;-79
2021/01/19 01:09:45;;;;;;;20.13;3.42;;;12.40;61.60;;;;;;2098960;28;20052;-81
2021/01/19 01:10:46;;;;;;;16.92;3.50;;;11.80;60.40;;;;;;2099157;28;20048;-86
2021/01/19 01:11:48;;;;;;;19.33;3.45;;;11.00;62.30;;;;;;2099098;28;20048;-86
2021/01/19 01:12:50;;;;;;;11.88;3.28;;;10.90;64.20;;;;;;2099987;28;20511;-84
2021/01/19 01:13:51;;;;;;;12.05;3.22;;;10.90;64.40;;;;;;2100127;28;20044;-78
2021/01/19 01:14:54;;;;;;;10.63;3.28;;;11.10;66.90;;;;;;2100184;28;20059;-80
2021/01/19 01:15:55;;;;;;;11.73;3.08;;;11.00;64.50;;;;;;2100062;28;20037;-84
2021/01/19 01:16:57;;;;;;;15.60;3.40;;;11.00;65.90;;;;;;2099966;28;20049;-79
2021/01/19 01:17:59;;;;;;;12.18;3.17;;;11.40;64.40;;;;;;2100032;28;20049;-78
2021/01/19 01:19:00;;;;;;;10.95;3.35;;;11.00;63.20;;;;;;2099882;28;20048;-86
2021/01/19 01:20:04;;;;;;;15.25;3.28;;;10.70;65.40;;;;;;2099553;28;20048;-76
2021/01/19 01:21:10;;;;;;;16.30;3.95;;;10.30;65.80;;;;;;2099382;28;20044;-81
2021/01/19 01:22:12;;;;;;;12.80;3.00;;;10.40;65.90;;;;;;2099511;28;20044;-77
2021/01/19 01:23:14;;;;;;;8.95;2.60;;;10.90;69.30;;;;;;2098892;28;20103;-81
2021/01/19 01:24:16;;;;;;;15.73;3.45;;;11.40;66.80;;;;;;2098330;28;20060;-81
2021/01/19 01:25:17;;;;;;;8.52;2.78;;;11.20;62.60;;;;;;2099363;28;20041;-85
2021/01/19 01:26:20;;;;;;;15.18;3.25;;;11.00;62.80;;;;;;2099045;28;20052;-84
2021/01/19 01:27:22;;;;;;;13.43;3.40;;;11.00;63.10;;;;;;2098587;28;20063;-77
2021/01/19 01:28:24;;;;;;;19.35;3.88;;;10.80;65.20;;;;;;2099454;28;20071;-84
2021/01/19 01:29:25;;;;;;;13.35;3.05;;;10.90;64.00;;;;;;2099244;28;20048;-85
2021/01/19 01:30:28;;;;;;;8.80;3.28;;;11.10;64.20;;;;;;2099120;28;20508;-79
2021/01/19 01:31:30;;;;;;;10.20;2.83;;;11.80;65.30;;;;;;2099166;28;20044;-78
2021/01/19 01:32:31;;;;;;;11.77;2.95;;;11.90;62.60;;;;;;2099309;28;20044;-76
2021/01/19 01:33:33;;;;;;;17.15;4.05;;;11.80;62.50;;;;;;2098882;28;20444;-79
2021/01/19 01:34:34;;;;;;;14.80;3.22;;;11.70;61.00;;;;;;2099023;28;20049;-81
2021/01/19 01:35:36;;;;;;;12.95;3.22;;;11.90;61.60;;;;;;2098781;28;20468;-80
2021/01/19 01:36:40;;;;;;;17.27;3.25;;;12.20;61.40;;;;;;2098123;28;20044;-82
2021/01/19 01:37:45;;;;;;;;;;;11.70;60.80;;;;;;2098179;28;20067;-74
2021/01/19 01:38:46;;;;;;;17.50;3.70;;;11.40;61.30;;;;;;2098336;28;20265;-82
2021/01/19 01:39:48;;;;;;;12.65;4.07;;;11.00;61.90;;;;;;2098358;28;20044;-80
2021/01/19 01:40:50;;;;;;;11.80;3.33;;;11.20;62.60;;;;;;2098563;28;20054;-77
2021/01/19 01:41:51;;;;;;;15.68;3.70;;;11.30;64.10;;;;;;2098688;28;20045;-83
2021/01/19 01:42:55;;;;;;;15.48;3.63;;;11.40;62.50;;;;;;2098488;28;20084;-82
2021/01/19 01:43:56;;;;;;;8.93;2.70;;;11.30;63.70;;;;;;2098292;28;20412;-87
2021/01/19 01:44:59;;;;;;;12.90;2.80;;;11.60;64.60;;;;;;2098480;28;20119;-80
2021/01/19 01:46:02;;;;;;;10.82;2.90;;;12.00;62.70;;;;;;2098206;28;20048;-79
2021/01/19 01:47:04;;;;;;;20.98;4.25;;;12.10;62.20;;;;;;2098421;28;20498;-76
2021/01/19 01:48:08;;;;;;;11.82;2.80;;;11.80;60.50;;;;;;2098388;28;20456;-80
2021/01/19 01:49:11;;;;;;;12.10;2.63;;;12.10;60.60;;;;;;2098379;28;20047;-78
2021/01/19 01:50:14;;;;;;;16.30;4.28;;;12.60;61.50;;;;;;2098380;28;20044;-77
2021/01/19 01:51:18;;;;;;;13.82;2.55;;;11.70;59.20;;;;;;2099641;28;20071;-74
2021/01/19 01:52:21;;;;;;;10.85;2.83;;;11.50;62.70;;;;;;2103749;28;20056;-75
2021/01/19 01:53:23;;;;;;;11.52;2.60;;;11.50;61.50;;;;;;2103226;28;20049;-74
2021/01/19 01:54:25;;;;;;;14.50;3.47;;;11.70;62.00;;;;;;2099422;28;20055;-82
2021/01/19 01:55:28;;;;;;;8.32;2.63;;;11.40;60.90;;;;;;2099268;28;20051;-81
2021/01/19 01:56:29;;;;;;;16.27;3.28;;;11.80;62.80;;;;;;2106262;28;20044;-85
2021/01/19 01:57:31;;;;;;;16.02;3.75;;;11.40;62.30;;;;;;2105894;28;20044;-77
2021/01/19 01:58:33;;;;;;;;;;;11.40;62.00;;;;;;2098926;28;20079;-83
2021/01/19 01:59:35;;;;;;;8.15;2.92;;;11.50;61.00;;;;;;2098311;28;19928;-81
2021/01/19 02:00:36;;;;;;;12.65;2.78;;;11.80;61.60;;;;;;2098718;28;20049;-86
2021/01/19 02:01:39;;;;;;;17.42;3.30;;;11.60;62.10;;;;;;2098271;28;20507;-80
2021/01/19 02:02:47;;;;;;;11.68;2.75;;;11.40;61.20;;;;;;2099266;28;20488;-80
2021/01/19 02:03:49;;;;;;;14.05;4.75;;;11.50;60.30;;;;;;2099968;28;20059;-83
2021/01/19 02:04:51;;;;;;;15.25;3.25;;;11.10;62.40;;;;;;2099772;28;20055;-78
2021/01/19 02:05:53;;;;;;;7.32;2.28;;;10.60;63.70;;;;;;2099552;28;20068;-82
2021/01/19 02:06:54;;;;;;;14.25;3.72;;;10.70;66.70;;;;;;2100488;28;20048;-79
2021/01/19 02:08:03;;;;;;;;;;;10.90;63.20;;;;;;2101572;28;20052;-83
2021/01/19 02:09:11;;;;;;;11.63;2.75;;;10.30;63.60;;;;;;2101154;28;19920;-79
2021/01/19 02:10:22;;;;;;;18.27;2.92;;;10.40;66.10;;;;;;2100541;28;20051;-78
2021/01/19 02:11:34;;;;;;;16.00;3.33;;;10.30;65.60;;;;;;2100869;28;20071;-75
2021/01/19 02:12:45;;;;;;;10.07;2.33;;;10.40;65.10;;;;;;2100260;28;20241;-84
2021/01/19 02:13:57;;;;;;;16.08;3.03;;;10.30;68.40;;;;;;2100715;28;20045;-80
2021/01/19 02:15:03;;;;;;;17.38;2.80;;;10.70;65.90;;;;;;2100812;28;20076;-77
2021/01/19 02:16:26;;;;;;;15.30;3.30;;;10.60;64.20;;;;;;2100473;28;20044;-80
2021/01/19 02:17:34;;;;;;;;;;;10.50;64.20;;;;;;2101160;28;20051;-83
2021/01/19 02:18:46;;;;;;;19.63;3.47;;;9.90;65.50;;;;;;2100880;28;19920;-81
2021/01/19 02:20:20;;;;;;;11.00;2.88;;;9.90;69.30;;;;;;2100386;28;20059;-81
2021/01/19 02:21:38;;;;;;;18.58;2.97;;;10.20;67.10;;;;;;2099658;28;20048;-75
2021/01/19 02:23:05;;;;;;;9.82;3.00;;;10.40;70.30;;;;;;2098915;28;20045;-80
2021/01/19 02:24:11;;;;;;;13.95;3.38;;;10.80;64.40;;;;;;2098994;28;20508;-77
2021/01/19 02:25:24;;;;;;;12.55;3.95;;;10.60;64.20;;;;;;2099228;28;20052;-76
2021/01/19 02:27:05;;;;;;;14.63;3.22;;;10.50;63.80;;;;;;2099720;28;20052;-80
2021/01/19 02:28:26;;;;;;;17.17;3.35;;;10.10;66.30;;;;;;2099386;28;20048;-84
2021/01/19 02:29:50;;;;;;;8.43;2.85;;;10.00;65.80;;;;;;2099728;28;20384;-80
2021/01/19 02:31:11;;;;;;;15.57;3.22;;;10.00;67.40;;;;;;2099161;28;20056;-77
2021/01/19 02:32:24;;;;;;;16.35;4.07;;;9.60;68.40;;;;;;2099588;28;20048;-80
2021/01/19 02:33:35;;;;;;;14.48;2.63;;;9.50;68.50;;;;;;2099373;28;20048;-86
2021/01/19 02:34:45;;;;;;;12.07;2.47;;;9.50;69.20;;;;;;2099677;28;20052;-83
2021/01/19 02:35:55;;;;;;;9.77;2.38;;;9.30;69.50;;;;;;2099535;28;20048;-82
2021/01/19 02:37:03;;;;;;;9.35;2.72;;;9.50;72.80;;;;;;2099653;28;20051;-80
2021/01/19 02:38:11;;;;;;;12.60;3.38;;;9.70;71.60;;;;;;2098922;28;20500;-77
2021/01/19 02:39:19;;;;;;;17.50;3.05;;;9.90;67.80;;;;;;2097905;28;20049;-87
2021/01/19 02:40:21;;;;;;;16.40;3.38;;;9.90;67.60;;;;;;2098918;28;20041;-77
2021/01/19 02:41:23;;;;;;;15.30;2.72;;;9.90;66.90;;;;;;2105575;28;20531;-77
2021/01/19 02:42:29;;;;;;;;;;;9.70;66.90;;;;;;2097932;28;20052;-78
2021/01/19 02:43:33;;;;;;;13.77;3.50;;;9.40;68.10;;;;;;2097539;28;19924;-80
2021/01/19 02:44:37;;;;;;;18.42;3.55;;;9.60;69.40;;;;;;2097999;28;20053;-80
2021/01/19 02:45:43;;;;;;;13.68;2.80;;;9.50;71.30;;;;;;2097942;28;20051;-78
2021/01/19 02:46:51;;;;;;;15.90;2.72;;;9.70;68.50;;;;;;2097694;28;20060;-82
2021/01/19 02:47:53;;;;;;;9.77;2.10;;;9.60;68.30;;;;;;2097825;28;20056;-84
2021/01/19 02:48:55;;;;;;;8.68;2.33;;;10.00;70.50;;;;;;2097922;28;20397;-75
2021/01/19 02:49:56;;;;;;;14.00;3.13;;;10.10;67.50;;;;;;2097976;28;20052;-76
2021/01/19 02:50:58;;;;;;;9.75;3.33;;;10.40;67.40;;;;;;2098125;28;20045;-87
2021/01/19 02:52:01;;;;;;;13.85;3.30;;;10.50;66.60;;;;;;2097856;28;20119;-76
2021/01/19 02:53:04;;;;;;;13.57;3.55;;;10.60;66.20;;;;;;2097933;28;20280;-81
2021/01/19 02:54:06;;;;;;;16.17;2.70;;;10.50;65.20;;;;;;2097943;28;20405;-86
2021/01/19 02:55:09;;;;;;;13.05;3.00;;;10.50;67.00;;;;;;2098009;28;20055;-77
2021/01/19 02:56:19;;;;;;;8.68;2.70;;;10.40;67.60;;;;;;2098002;28;20513;-81
2021/01/19 02:57:37;;;;;;;18.30;3.67;;;10.80;66.70;;;;;;2097856;28;20511;-82
2021/01/19 02:58:48;;;;;;;11.65;3.10;;;10.90;64.60;;;;;;2097483;28;20045;-78
2021/01/19 02:59:59;;;;;;;16.80;3.08;;;11.00;63.70;;;;;;2097557;28;20051;-82
2021/01/19 03:01:04;;;;;;;11.27;2.60;;;10.90;61.90;;;;;;2097736;28;20052;-85
2021/01/19 03:02:09;;;;;;;15.43;2.72;;;10.60;62.40;;;;;;2098047;28;20056;-79
2021/01/19 03:03:14;;;;;;;15.55;3.42;;;10.50;62.30;;;;;;2098171;28;20044;-75
2021/01/19 03:04:19;;;;;;;14.52;3.03;;;10.40;64.10;;;;;;2097737;28;20041;-87
2021/01/19 03:05:23;;;;;;;11.40;2.45;;;10.50;64.70;;;;;;2097735;28;20511;-81
2021/01/19 03:06:31;;;;;;;15.95;2.88;;;10.80;63.70;;;;;;2098099;28;20045;-79
2021/01/19 03:07:36;;;;;;;14.23;3.38;;;10.60;64.80;;;;;;2097874;28;20076;-78
2021/01/19 03:08:41;;;;;;;14.00;3.15;;;10.60;62.60;;;;;;2097896;28;20051;-79
2021/01/19 03:09:43;;;;;;;8.73;2.55;;;10.80;63.20;;;;;;2098291;28;20199;-80
2021/01/19 03:10:48;;;;;;;13.43;2.88;;;10.80;64.10;;;;;;2098398;28;20044;-85
2021/01/19 03:11:54;;;;;;;12.57;2.92;;;10.60;62.00;;;;;;2098149;28;20044;-84
2021/01/19 03:12:56;;;;;;;10.20;2.58;;;10.50;62.80;;;;;;2098107;28;20056;-77
2021/01/19 03:14:02;;;;;;;11.98;3.25;;;10.50;66.90;;;;;;2098239;28;20048;-82
2021/01/19 03:15:06;;;;;;;13.48;3.00;;;10.20;66.80;;;;;;2098161;28;20087;-76
2021/01/19 03:16:08;;;;;;;10.48;2.97;;;10.00;65.10;;;;;;2097833;28;20086;-82
2021/01/19 03:17:12;;;;;;;14.23;3.63;;;10.00;68.50;;;;;;2098296;28;20044;-79
2021/01/19 03:18:15;;;;;;;11.15;3.10;;;9.90;64.60;;;;;;2098424;28;20056;-79
2021/01/19 03:19:19;;;;;;;17.23;3.28;;;10.20;65.30;;;;;;2098446;28;20051;-81
2021/01/19 03:20:24;;;;;;;9.43;2.60;;;10.00;67.60;;;;;;2097985;28;20055;-81
2021/01/19 03:21:26;;;;;;;14.90;3.20;;;10.10;68.70;;;;;;2098546;28;20045;-82
2021/01/19 03:22:28;;;;;;;13.82;2.55;;;10.50;66.00;;;;;;2098107;28;20513;-82
2021/01/19 03:23:29;;;;;;;12.30;2.72;;;10.40;65.70;;;;;;2098211;28;20044;-84
2021/01/19 03:24:31;;;;;;;13.23;2.88;;;10.10;66.40;;;;;;2098643;28;20045;-78
2021/01/19 03:25:33;;;;;;;8.77;2.58;;;10.40;66.00;;;;;;2098350;28;20052;-77
2021/01/19 03:26:35;;;;;;;16.20;3.40;;;10.70;65.50;;;;;;2099375;28;20067;-80
2021/01/19 03:27:36;;;;;;;12.52;3.65;;;10.50;63.90;;;;;;2099488;28;20041;-85
2021/01/19 03:28:38;;;;;;;6.18;1.55;;;10.60;63.70;;;;;;2099490;28;20139;-81
2021/01/19 03:29:40;;;;;;;;;;;11.10;66.40;;;;;;2099549;28;20048;-77
2021/01/19 03:30:41;;;;;;;16.08;2.78;;;10.60;61.80;;;;;;2099262;28;20383;-80
2021/01/19 03:31:43;;;;;;;15.23;3.20;;;10.10;65.00;;;;;;2099406;28;20044;-83
2021/01/19 03:32:45;;;;;;;13.05;2.92;;;9.80;65.60;;;;;;2099763;28;20044;-79
2021/01/19 03:33:47;;;;;;;16.17;3.38;;;9.80;66.40;;;;;;2099474;28;20043;-85
2021/01/19 03:34:49;;;;;;;12.52;3.15;;;9.90;65.90;;;;;;2103232;28;20052;-77
2021/01/19 03:35:51;;;;;;;11.38;2.72;;;9.90;65.80;;;;;;2103865;28;20505;-77
2021/01/19 03:36:52;;;;;;;;;;;9.80;66.30;;;;;;2102307;28;20045;-81
2021/01/19 03:37:54;;;;;;;11.40;2.30;;;9.50;68.60;;;;;;2106897;28;19920;-80
2021/01/19 03:38:56;;;;;;;10.25;2.75;;;9.90;70.10;;;;;;2106630;28;20056;-80
2021/01/19 03:39:57;;;;;;;15.40;3.33;;;10.50;66.80;;;;;;2097913;28;20067;-78
2021/01/19 03:40:59;;;;;;;9.20;2.47;;;10.10;64.10;;;;;;2098341;28;20056;-82
2021/01/19 03:42:02;;;;;;;16.83;3.42;;;9.90;69.40;;;;;;2098600;28;20040;-80
2021/01/19 03:43:03;;;;;;;10.55;2.63;;;9.90;66.00;;;;;;2098760;28;20055;-76
2021/01/19 03:44:06;;;;;;;13.07;2.78;;;9.90;68.40;;;;;;2098490;28;20131;-81
2021/01/19 03:45:08;;;;;;;11.10;2.33;;;10.00;66.40;;;;;;2098345;28;20385;-87
2021/01/19 03:46:10;;;;;;;8.82;2.40;;;10.10;68.80;;;;;;2098038;28;20051;-78
2021/01/19 03:47:12;;;;;;;10.98;2.50;;;10.60;67.60;;;;;;2090236;28;20397;-88
2021/01/19 03:48:14;;;;;;;14.80;3.25;;;10.70;64.10;;;;;;2090174;28;20315;-75
2021/01/19 03:49:16;;;;;;;15.88;3.17;;;10.30;65.80;;;;;;2089953;28;20052;-81
2021/01/19 03:50:18;;;;;;;17.58;2.60;;;10.40;65.80;;;;;;2097155;28;20401;-81
2021/01/19 03:51:22;;;;;;;21.35;4.03;;;10.50;66.00;;;;;;2097375;28;20124;-80
2021/01/19 03:52:25;;;;;;;14.57;3.47;;;9.70;66.40;;;;;;2089525;28;20049;-75
2021/01/19 03:53:27;;;;;;;15.25;2.78;;;9.50;68.00;;;;;;2089445;28;20045;-81
2021/01/19 03:54:29;;;;;;;13.40;2.47;;;9.50;68.40;;;;;;2089155;28;20509;-80
2021/01/19 03:55:31;;;;;;;20.08;2.80;;;9.50;68.00;;;;;;2089274;28;20051;-79
2021/01/19 03:56:32;;;;;;;;;;;9.30;68.90;;;;;;2089620;28;20048;-74
2021/01/19 03:57:34;;;;;;;13.35;2.95;;;9.40;69.10;;;;;;2089113;28;19924;-77
2021/01/19 03:58:35;;;;;;;19.50;3.85;;;9.10;69.50;;;;;;2088942;28;20051;-77
2021/01/19 03:59:37;;;;;;;14.55;4.30;;;9.20;69.50;;;;;;2089314;28;20049;-76
2021/01/19 04:00:39;;;;;;;11.10;2.88;;;9.30;69.70;;;;;;2089251;28;20053;-75
2021/01/19 04:01:41;;;;;;;8.55;2.60;;;9.40;68.70;;;;;;2089550;28;20049;-85
2021/01/19 04:02:43;;;;;;;11.75;2.90;;;9.70;69.80;;;;;;2089114;28;20068;-78
2021/01/19 04:03:44;;;;;;;19.23;3.13;;;9.90;68.80;;;;;;2089229;28;20049;-75
2021/01/19 04:04:48;;;;;;;17.90;2.63;;;9.90;67.10;;;;;;2088975;28;20041;-77
2021/01/19 04:05:50;;;;;;;20.10;3.78;;;10.00;66.40;;;;;;2089225;28;20060;-81
2021/01/19 04:06:52;;;;;;;13.93;2.67;;;10.00;66.10;;;;;;2089175;28;20053;-78
2021/01/19 04:07:54;;;;;;;18.67;3.38;;;10.40;67.40;;;;;;2089596;28;20052;-81
2021/01/19 04:08:55;;;;;;;13.77;3.33;;;10.20;65.40;;;;;;2089369;28;20041;-78
2021/01/19 04:09:57;;;;;;;12.35;2.60;;;10.20;66.60;;;;;;2089262;28;20045;-83
2021/01/19 04:10:59;;;;;;;6.75;2.45;;;10.30;67.30;;;;;;2089434;28;20041;-73
2021/01/19 04:12:02;;;;;;;20.65;2.90;;;11.20;67.80;;;;;;2089142;28;20060;-85
2021/01/19 04:13:04;;;;;;;19.15;3.78;;;10.90;64.10;;;;;;2089001;28;20367;-78
2021/01/19 04:14:05;;;;;;;13.70;2.65;;;10.50;63.70;;;;;;2089167;28;20049;-86
2021/01/19 04:15:09;;;;;;;13.05;3.13;;;10.80;66.20;;;;;;2089006;28;20064;-78
2021/01/19 04:16:11;;;;;;;12.15;2.92;;;10.80;66.10;;;;;;2089121;28;20052;-76
2021/01/19 04:17:13;;;;;;;18.27;3.30;;;10.50;63.90;;;;;;2089431;28;20547;-82
2021/01/19 04:18:15;;;;;;;18.52;2.90;;;10.20;64.00;;;;;;2096870;28;20571;-79
2021/01/19 04:19:16;;;;;;;13.88;3.22;;;10.20;66.30;;;;;;2096761;28;20048;-86
2021/01/19 04:20:19;;;;;;;18.77;3.15;;;10.30;65.40;;;;;;2089181;28;20052;-81
2021/01/19 04:21:20;;;;;;;13.13;3.05;;;10.10;66.60;;;;;;2089193;28;20486;-80
2021/01/19 04:22:24;;;;;;;14.68;2.75;;;10.20;65.50;;;;;;2096818;28;20045;-77
2021/01/19 04:23:26;;;;;;;18.65;4.15;;;10.40;68.10;;;;;;2096150;28;20382;-77
2021/01/19 04:24:27;;;;;;;21.35;3.58;;;9.90;66.10;;;;;;2089147;28;20049;-81
2021/01/19 04:25:29;;;;;;;22.67;3.40;;;9.90;68.30;;;;;;2088815;28;20056;-84
2021/01/19 04:26:31;;;;;;;19.30;3.50;;;10.10;67.30;;;;;;2089557;28;20121;-83
2021/01/19 04:27:32;;;;;;;22.65;3.55;;;10.10;68.80;;;;;;2088974;28;20402;-84
2021/01/19 04:28:34;;;;;;;17.55;3.40;;;10.50;67.10;;;;;;2089267;28;20060;-78
2021/01/19 04:29:36;;;;;;;22.92;3.83;;;10.20;67.10;;;;;;2089190;28;20106;-84
2021/01/19 04:30:38;;;;;;;14.18;2.95;;;10.00;66.80;;;;;;2089313;28;20517;-77
2021/01/19 04:31:39;;;;;;;14.60;3.75;;;9.60;67.80;;;;;;2090774;28;20064;-82
2021/01/19 04:32:41;;;;;;;17.27;3.70;;;9.90;68.00;;;;;;2090711;28;20045;-75
2021/01/19 04:33:43;;;;;;;19.30;3.28;;;10.20;67.70;;;;;;2091219;28;20049;-86
2021/01/19 04:34:44;;;;;;;16.05;3.17;;;9.90;67.60;;;;;;2091953;28;20397;-75
2021/01/19 04:35:47;;;;;;;17.02;3.50;;;10.10;67.50;;;;;;2091995;28;20052;-80
2021/01/19 04:36:48;;;;;;;17.27;3.15;;;10.30;67.50;;;;;;2091735;28;20049;-82
2021/01/19 04:37:50;;;;;;;11.77;2.55;;;9.90;66.60;;;;;;2101496;28;20440;-78
2021/01/19 04:38:52;;;;;;;13.43;3.17;;;10.20;68.60;;;;;;2108126;28;20195;-82
2021/01/19 04:39:53;;;;;;;22.50;3.85;;;10.10;69.50;;;;;;2100074;28;20051;-82
2021/01/19 04:40:56;;;;;;;15.70;3.70;;;9.70;68.10;;;;;;2100069;28;20051;-77
2021/01/19 04:41:58;;;;;;;17.60;3.17;;;9.70;70.50;;;;;;2108134;28;20120;-84
2021/01/19 04:43:00;;;;;;;16.55;3.53;;;9.80;70.70;;;;;;2107894;28;20091;-84
2021/01/19 04:44:03;;;;;;;18.50;3.17;;;10.00;69.70;;;;;;2099687;28;20045;-84
2021/01/19 04:45:07;;;;;;;16.58;3.58;;;10.00;69.60;;;;;;2098008;28;20054;-85
2021/01/19 04:46:10;;;;;;;22.30;3.97;;;10.30;67.30;;;;;;2097681;28;20041;-84
2021/01/19 04:47:12;;;;;;;15.45;3.97;;;10.10;67.30;;;;;;2089320;28;20045;-82
2021/01/19 04:48:15;;;;;;;18.00;3.60;;;9.70;68.50;;;;;;2090689;28;20045;-83
2021/01/19 04:49:17;;;;;;;17.00;3.17;;;9.80;70.10;;;;;;2090805;28;20053;-83
2021/01/19 04:50:18;;;;;;;;;;;9.90;71.00;;;;;;2092383;28;20067;-76
2021/01/19 04:51:23;;;;;;;18.13;2.85;;;9.70;70.10;;;;;;2091984;28;19932;-79
2021/01/19 04:52:29;;;;;;;12.30;3.22;;;9.50;69.70;;;;;;2092456;28;20053;-79
2021/01/19 04:53:36;;;;;;;9.85;2.75;;;9.40;71.50;;;;;;2091754;28;20049;-78
2021/01/19 04:54:57;;;;;;;11.57;2.75;;;9.80;72.60;;;;;;2090322;28;20044;-76
2021/01/19 04:56:03;;;;;;;21.33;3.88;;;9.90;70.30;;;;;;2090551;28;20049;-80
2021/01/19 04:57:13;;;;;;;16.95;3.95;;;9.80;71.20;;;;;;2090970;28;20099;-79
2021/01/19 04:58:21;;;;;;;18.40;3.47;;;10.30;70.60;;;;;;2090600;28;20041;-77
2021/01/19 04:59:24;;;;;;;21.58;3.42;;;9.60;70.20;;;;;;2089724;28;20439;-78
2021/01/19 05:00:32;;;;;;;21.58;3.15;;;9.20;71.70;;;;;;2089734;28;20114;-78
2021/01/19 05:02:07;;;;;;;13.18;3.10;;;9.00;74.30;;;;;;2089924;28;20060;-78
2021/01/19 05:03:20;;;;;;;17.63;3.22;;;8.70;75.40;;;;;;2091117;28;20037;-76
2021/01/19 05:04:49;;;;;;;19.02;4.03;;;9.30;76.00;;;;;;2091099;28;20056;-80
2021/01/19 05:06:16;;;;;;;14.35;2.45;;;9.40;73.70;;;;;;2090687;28;20060;-76
2021/01/19 05:07:30;;;;;;;14.30;2.70;;;10.40;72.30;;;;;;2090669;28;20045;-85
2021/01/19 05:09:06;;;;;;;16.25;3.20;;;10.50;69.90;;;;;;2090399;28;20540;-85
2021/01/19 05:10:11;;;;;;;11.60;2.55;;;10.10;70.60;;;;;;2090482;28;20516;-79
2021/01/19 05:11:21;;;;;;;12.68;2.67;;;10.70;69.70;;;;;;2090832;28;20056;-74
2021/01/19 05:12:32;;;;;;;20.92;3.53;;;11.00;68.20;;;;;;2090790;28;20056;-77
2021/01/19 05:13:52;;;;;;;14.20;3.20;;;10.20;68.20;;;;;;2091003;28;20057;-78
2021/01/19 05:14:57;;;;;;;;;;;9.80;70.90;;;;;;2091513;28;20067;-85
2021/01/19 05:16:03;;;;;;;15.23;3.27;;;9.80;71.80;;;;;;2091170;28;20400;-85
2021/01/19 05:17:05;;;;;;;23.33;4.35;;;10.00;71.30;;;;;;2092008;28;20284;-78
2021/01/19 05:18:09;;;;;;;10.13;2.47;;;10.10;70.20;;;;;;2094107;28;20045;-78
2021/01/19 05:19:11;;;;;;;16.73;2.83;;;10.70;70.70;;;;;;2095822;28;20045;-76
2021/01/19 05:20:13;;;;;;;15.77;3.17;;;10.60;69.10;;;;;;2091597;28;20052;-81
2021/01/19 05:21:15;;;;;;;16.95;5.20;;;10.70;68.90;;;;;;2091374;28;20041;-82
2021/01/19 05:22:18;;;;;;;;;;;10.50;69.00;;;;;;2090579;28;20086;-81
2021/01/19 05:23:23;;;;;;;;;;;10.70;68.60;;;;;;2090663;28;20400;-81
2021/01/19 05:24:25;;;;;;;15.32;3.60;;;10.70;68.10;;;;;;2090708;28;19952;-75
2021/01/19 05:25:27;;;;;;;14.45;3.25;;;10.50;69.10;;;;;;2090297;28;20088;-83
2021/01/19 05:26:29;;;;;;;17.10;3.28;;;10.30;70.30;;;;;;2090548;28;20049;-76
2021/01/19 05:27:30;;;;;;;;;;;10.40;70.50;;;;;;2090803;28;20481;-86
2021/01/19 05:28:40;;;;;;;12.13;2.92;;;10.60;70.10;;;;;;2090178;28;19921;-76
2021/01/19 05:29:42;;;;;;;8.07;2.70;;;10.30;69.30;;;;;;2090727;28;20485;-80
2021/01/19 05:30:51;;;;;;;11.68;2.88;;;11.00;69.50;;;;;;2090311;28;20048;-80
2021/01/19 05:31:52;;;;;;;11.18;2.80;;;10.80;67.00;;;;;;2090397;28;20049;-78
2021/01/19 05:32:54;;;;;;;16.42;3.58;;;10.30;69.10;;;;;;2090160;28;20052;-81